createdAt,value
2019-02-09T00:00:30.819Z,7.61
2019-02-09T00:05:31.880Z,7.55
2019-02-09T00:10:31.041Z,7.51
2019-02-09T00:15:30.198Z,7.45
2019-02-09T00:20:29.010Z,7.40
2019-02-09T00:25:28.867Z,7.34
2019-02-09T00:30:28.234Z,7.32
2019-02-09T00:35:28.845Z,7.31
2019-02-09T00:40:27.872Z,7.23
2019-02-09T00:45:27.874Z,7.21
2019-02-09T00:50:26.862Z,7.16
2019-02-09T00:55:26.035Z,7.13
2019-02-09T01:00:26.866Z,7.14
2019-02-09T01:05:26.113Z,7.11
2019-02-09T01:10:26.846Z,7.07
2019-02-09T01:15:26.912Z,7.04
2019-02-09T01:20:26.848Z,7.02
2019-02-09T01:25:25.922Z,6.97
2019-02-09T01:30:24.884Z,6.92
2019-02-09T01:35:24.056Z,6.86
2019-02-09T01:40:23.859Z,6.81
2019-02-09T01:45:23.272Z,6.79
2019-02-09T01:50:22.868Z,6.78
2019-02-09T01:55:21.966Z,6.78
2019-02-09T02:00:20.866Z,6.79
2019-02-09T02:05:20.874Z,6.77
2019-02-09T02:10:19.876Z,6.76
2019-02-09T02:15:19.889Z,6.76
2019-02-09T02:20:18.954Z,6.80
2019-02-09T02:25:18.893Z,6.78
2019-02-09T02:30:22.380Z,6.78
2019-02-09T02:35:17.947Z,6.81
2019-02-09T02:40:17.859Z,6.84
2019-02-09T02:45:17.201Z,6.89
2019-02-09T02:50:16.123Z,6.84
2019-02-09T02:55:15.889Z,6.82
2019-02-09T03:00:14.931Z,6.82
2019-02-09T03:05:14.859Z,6.83
2019-02-09T03:10:14.891Z,6.83
2019-02-09T03:15:13.873Z,6.84
2019-02-09T03:20:13.115Z,6.85
2019-02-09T03:25:12.888Z,6.88
2019-02-09T03:30:11.904Z,6.92
2019-02-09T03:35:11.992Z,6.94
2019-02-09T03:40:10.879Z,6.94
2019-02-09T03:45:09.898Z,6.94
2019-02-09T03:50:09.242Z,7.00
2019-02-09T03:55:07.907Z,7.07
2019-02-09T04:00:07.910Z,7.09
2019-02-09T04:05:07.230Z,7.11
2019-02-09T04:10:06.062Z,7.10
2019-02-09T04:15:05.880Z,7.18
2019-02-09T04:20:06.013Z,7.32
2019-02-09T04:25:05.939Z,7.38
2019-02-09T04:30:05.974Z,7.39
2019-02-09T04:35:06.897Z,7.35
2019-02-09T04:40:06.025Z,7.35
2019-02-09T04:45:05.091Z,7.36
2019-02-09T04:50:04.080Z,7.39
2019-02-09T04:55:04.564Z,7.42
2019-02-09T05:00:03.161Z,7.34
2019-02-09T05:05:02.870Z,7.27
2019-02-09T05:10:02.869Z,7.32
2019-02-09T05:15:02.751Z,7.29
2019-02-09T05:20:03.097Z,7.29
2019-02-09T05:25:03.960Z,7.33
2019-02-09T05:30:03.923Z,7.26
2019-02-09T05:35:03.986Z,7.27
2019-02-09T05:40:03.158Z,7.31
2019-02-09T05:45:02.122Z,7.34
2019-02-09T05:50:01.892Z,7.39
2019-02-09T05:55:01.312Z,7.48
2019-02-09T06:00:02.128Z,7.45
2019-02-09T06:05:01.955Z,7.48
2019-02-09T06:10:01.920Z,7.43
2019-02-09T06:15:02.150Z,7.43
2019-02-09T06:20:02.901Z,7.45
2019-02-09T06:25:03.297Z,7.49
2019-02-09T06:30:03.149Z,7.53
2019-02-09T06:35:02.921Z,7.51
2019-02-09T06:40:02.912Z,7.53
2019-02-09T06:45:03.933Z,7.55
2019-02-09T06:50:03.892Z,7.48
2019-02-09T06:55:02.912Z,7.48
2019-02-09T07:00:02.938Z,7.39
2019-02-09T07:05:01.901Z,7.35
2019-02-09T07:10:02.927Z,7.21
2019-02-09T07:15:04.103Z,6.96
2019-02-09T07:20:03.153Z,6.83
2019-02-09T07:25:02.317Z,6.75
2019-02-09T07:30:01.971Z,6.77
2019-02-09T07:35:02.972Z,6.77
2019-02-09T07:40:03.107Z,6.76
2019-02-09T07:45:02.137Z,6.77
2019-02-09T07:50:01.944Z,6.76
2019-02-09T07:55:01.903Z,6.72
2019-02-09T08:00:01.397Z,6.53
2019-02-09T08:05:02.158Z,6.45
2019-02-09T08:10:03.051Z,6.48
2019-02-09T08:15:03.309Z,6.55
2019-02-09T08:20:02.904Z,6.61
2019-02-09T08:25:01.926Z,6.68
2019-02-09T08:30:01.142Z,6.68
2019-02-09T08:34:59.987Z,6.71
2019-02-09T08:40:00.207Z,6.73
2019-02-09T08:45:00.929Z,6.77
2019-02-09T08:50:02.175Z,6.86
2019-02-09T08:55:01.941Z,6.90
2019-02-09T09:00:02.143Z,7.02
2019-02-09T09:05:09.421Z,7.29
2019-02-09T09:10:01.999Z,7.49
2019-02-09T09:15:01.979Z,7.63
2019-02-09T09:20:02.087Z,7.70
2019-02-09T09:25:00.960Z,7.76
2019-02-09T09:30:00.404Z,7.77
2019-02-09T09:34:59.230Z,7.90
2019-02-09T09:39:59.014Z,8.18
2019-02-09T09:44:58.971Z,8.15
2019-02-09T09:49:57.958Z,8.14
2019-02-09T09:54:58.263Z,8.16
2019-02-09T09:59:58.275Z,8.20
2019-02-09T10:04:57.963Z,8.23
2019-02-09T10:09:57.027Z,8.22
2019-02-09T10:14:57.259Z,8.47
2019-02-09T10:19:57.007Z,8.55
2019-02-09T10:24:56.006Z,8.39
2019-02-09T10:29:56.156Z,8.30
2019-02-09T10:34:57.191Z,8.54
2019-02-09T10:39:56.987Z,8.94
2019-02-09T10:44:56.163Z,8.97
2019-02-09T10:49:56.046Z,8.88
2019-02-09T10:54:56.001Z,8.83
2019-02-09T10:59:56.000Z,8.77
2019-02-09T11:04:56.152Z,8.89
2019-02-09T11:09:57.035Z,8.94
2019-02-09T11:14:57.014Z,8.84
2019-02-09T11:19:56.420Z,8.83
2019-02-09T11:24:57.002Z,8.96
2019-02-09T11:29:56.026Z,9.03
2019-02-09T11:34:56.081Z,8.99
2019-02-09T11:39:56.027Z,8.92
2019-02-09T11:44:56.291Z,8.90
2019-02-09T11:49:55.057Z,8.84
2019-02-09T11:54:55.010Z,8.82
2019-02-09T11:59:55.022Z,8.84
2019-02-09T12:04:56.044Z,8.90
2019-02-09T12:09:55.349Z,9.23
2019-02-09T12:14:55.008Z,9.32
2019-02-09T12:19:55.022Z,9.38
2019-02-09T12:24:55.059Z,9.31
2019-02-09T12:29:54.054Z,9.27
2019-02-09T12:34:54.005Z,9.21
2019-02-09T12:39:53.066Z,9.19
2019-02-09T12:44:53.019Z,9.20
2019-02-09T12:49:52.617Z,9.19
2019-02-09T12:54:53.018Z,9.25
2019-02-09T12:59:53.002Z,9.20
2019-02-09T13:04:53.217Z,9.21
2019-02-09T13:09:53.195Z,9.20
2019-02-09T13:14:53.292Z,9.19
2019-02-09T13:19:53.006Z,9.10
2019-02-09T13:24:53.020Z,9.01
2019-02-09T13:29:54.039Z,9.01
2019-02-09T13:34:53.037Z,9.05
2019-02-09T13:39:53.249Z,9.13
2019-02-09T13:44:52.057Z,9.29
2019-02-09T13:49:51.089Z,9.34
2019-02-09T13:54:50.294Z,9.41
2019-02-09T13:59:51.031Z,9.40
2019-02-09T14:04:51.017Z,9.41
2019-02-09T14:09:51.024Z,9.43
2019-02-09T14:14:50.074Z,9.50
2019-02-09T14:19:49.468Z,9.50
2019-02-09T14:24:50.083Z,9.37
2019-02-09T14:29:49.021Z,9.32
2019-02-09T14:34:48.092Z,9.19
2019-02-09T14:39:47.190Z,9.04
2019-02-09T14:44:46.055Z,8.27
2019-02-09T14:49:46.054Z,7.84
2019-02-09T14:54:46.043Z,7.53
2019-02-09T14:59:46.073Z,7.28
2019-02-09T15:04:46.023Z,7.22
2019-02-09T15:09:46.056Z,7.15
2019-02-09T15:14:45.035Z,7.10
2019-02-09T15:19:46.049Z,7.06
2019-02-09T15:24:45.064Z,7.03
2019-02-09T15:29:45.063Z,7.03
2019-02-09T15:34:45.038Z,7.09
2019-02-09T15:39:44.140Z,7.13
2019-02-09T15:44:43.050Z,7.20
2019-02-09T15:49:43.052Z,7.23
2019-02-09T15:54:42.100Z,7.24
2019-02-09T15:59:42.091Z,7.24
2019-02-09T16:04:42.101Z,7.32
2019-02-09T16:09:42.029Z,7.32
2019-02-09T16:14:41.143Z,7.37
2019-02-09T16:19:41.103Z,7.32
2019-02-09T16:24:42.146Z,7.38
2019-02-09T16:29:41.541Z,7.47
2019-02-09T16:34:41.051Z,7.49
2019-02-09T16:39:41.158Z,7.49
2019-02-09T16:44:40.099Z,7.58
2019-02-09T16:49:40.080Z,7.67
2019-02-09T16:54:39.183Z,7.63
2019-02-09T16:59:38.081Z,7.76
2019-02-09T17:04:37.135Z,7.87
2019-02-09T17:09:36.293Z,7.93
2019-02-09T17:14:37.049Z,8.03
2019-02-09T17:19:36.520Z,8.09
2019-02-09T17:24:37.077Z,8.08
2019-02-09T17:29:37.153Z,7.98
2019-02-09T17:34:40.835Z,7.94
2019-02-09T17:39:36.152Z,7.90
2019-02-09T17:44:37.043Z,7.88
2019-02-09T17:49:36.494Z,7.92
2019-02-09T17:54:35.557Z,7.97
2019-02-09T17:59:36.057Z,7.95
2019-02-09T18:04:36.090Z,7.96
2019-02-09T18:09:36.127Z,7.88
2019-02-09T18:14:36.043Z,7.88
2019-02-09T18:19:35.099Z,8.03
2019-02-09T18:24:35.092Z,8.05
2019-02-09T18:29:36.102Z,8.09
2019-02-09T18:34:36.093Z,8.12
2019-02-09T18:39:35.224Z,8.13
2019-02-09T18:44:36.064Z,8.10
2019-02-09T18:49:35.898Z,8.05
2019-02-09T18:54:36.094Z,8.04
2019-02-09T18:59:35.454Z,8.06
2019-02-09T19:04:34.501Z,8.05
2019-02-09T19:09:33.059Z,8.03
2019-02-09T19:14:33.067Z,8.01
2019-02-09T19:19:32.265Z,8.02
2019-02-09T19:24:31.102Z,8.07
2019-02-09T19:29:31.084Z,8.05
2019-02-09T19:34:31.330Z,8.02
2019-02-09T19:39:31.143Z,7.95
2019-02-09T19:44:32.412Z,7.82
2019-02-09T19:49:31.098Z,7.69
2019-02-09T19:54:31.138Z,7.63
2019-02-09T19:59:31.148Z,7.64
2019-02-09T20:04:30.095Z,7.63
2019-02-09T20:09:30.362Z,7.60
2019-02-09T20:14:29.207Z,7.56
2019-02-09T20:19:29.594Z,7.61
2019-02-09T20:24:29.270Z,7.60
2019-02-09T20:29:29.169Z,7.68
2019-02-09T20:34:28.284Z,7.72
2019-02-09T20:39:27.247Z,7.75
2019-02-09T20:44:27.165Z,7.79
2019-02-09T20:49:27.063Z,7.84
2019-02-09T20:54:27.126Z,7.82
2019-02-09T20:59:26.406Z,7.80
2019-02-09T21:04:27.128Z,7.78
2019-02-09T21:09:27.122Z,7.77
2019-02-09T21:14:27.415Z,7.81
2019-02-09T21:19:27.187Z,7.84
2019-02-09T21:24:26.358Z,7.87
2019-02-09T21:29:26.130Z,7.86
2019-02-09T21:34:26.308Z,7.85
2019-02-09T21:39:25.075Z,7.86
2019-02-09T21:44:25.306Z,7.86
2019-02-09T21:49:24.457Z,7.80
2019-02-09T21:54:23.396Z,7.73
2019-02-09T21:59:24.151Z,7.71
2019-02-09T22:04:24.159Z,7.67
2019-02-09T22:09:24.764Z,7.71
2019-02-09T22:14:24.832Z,7.66
2019-02-09T22:19:24.791Z,7.71
2019-02-09T22:24:23.707Z,7.77
2019-02-09T22:29:24.727Z,7.78
2019-02-09T22:34:24.723Z,7.77
2019-02-09T22:39:24.740Z,7.72
2019-02-09T22:44:24.762Z,7.70
2019-02-09T22:49:24.715Z,7.69
2019-02-09T22:54:23.727Z,7.69
2019-02-09T22:59:22.753Z,7.69
2019-02-09T23:04:22.759Z,7.70
2019-02-09T23:09:23.719Z,7.68
2019-02-09T23:14:23.728Z,7.67
2019-02-09T23:19:22.721Z,7.65
2019-02-09T23:24:22.750Z,7.61
2019-02-09T23:29:21.850Z,7.67
2019-02-09T23:34:22.760Z,7.62
2019-02-09T23:39:22.758Z,7.61
2019-02-09T23:44:22.721Z,7.69
2019-02-09T23:49:23.731Z,7.69
2019-02-09T23:54:23.748Z,7.69
2019-02-09T23:59:24.759Z,7.67
